K0CO

Empire

Empire, Colorado, USA
METAR K0CO 240754Z AUTO 30016KT 10SM CLR 01/M05 A3047 RMK AO2
Observed Flight Rules
May-24 @ 07:54 UTC (15 minutes ago) Visual Flight Rules
Wind Visibility Clouds
300° at 16 knots 10 miles
  • Clear skies
Temperatures Readings
Current 1°C / 34°F
Dewpoint -5°C / 23°F
Humidity 65%
Altimeter 30.47" Hg
Pressure 1032 hPa
Elevation 3807
METAR K0CO 240754Z AUTO 30016KT 10SM CLR 01/M05 A3047 RMK AO2
Observed Flight Rules
May-24 @ 07:54 UTC
(15 minutes ago)
VFR
Wind Visibility
300° at 16 knots 10 miles
Clouds
  • Clear skies
Temperature Dewpoint
1°C / 34°F -5°C / 23°F
Humidity Altimeter Pressure
65% 30.47" Hg 1032 hPa